Time;durP1;ratioP1;P1;durP2;ratioP2;P2;SDS_P1;SDS_P2;PMS_P1;PMS_P2;Temp;Humidity;BMP_temperature;BMP_pressure;BME280_temperature;BME280_humidity;BME280_pressure;Samples;Min_cycle;Max_cycle;Signal;HPM_P1;HPM_P2
2022/09/09 00:02:19;;;;;;;0.13;0.13;;;16.30;99.90;;;;;;5082087;28;20652;-82
2022/09/09 00:04:59;;;;;;;0.20;0.20;;;16.20;99.90;;;;;;5081381;28;20218;-81
2022/09/09 00:07:32;;;;;;;0.20;0.20;;;16.10;99.90;;;;;;5080370;28;20218;-81
2022/09/09 00:10:26;;;;;;;2.30;0.30;;;16.00;99.90;;;;;;5081426;28;20202;-82
2022/09/09 00:13:18;;;;;;;0.47;0.43;;;15.90;99.90;;;;;;5079152;28;20191;-81
2022/09/09 00:16:00;;;;;;;0.90;0.40;;;15.80;99.90;;;;;;5077827;28;20210;-80
2022/09/09 00:18:47;;;;;;;0.23;0.23;;;15.70;99.90;;;;;;5078493;28;20184;-81
2022/09/09 00:21:15;;;;;;;0.10;0.10;;;15.70;99.90;;;;;;5071796;28;20261;-79
2022/09/09 00:23:51;;;;;;;0.33;0.23;;;15.60;99.90;;;;;;5075801;28;22281;-79
2022/09/09 00:26:36;;;;;;;1.30;0.20;;;15.60;99.90;;;;;;5076943;28;20183;-80
2022/09/09 00:29:12;;;;;;;0.10;0.10;;;15.60;99.90;;;;;;5074771;28;20176;-79
2022/09/09 00:31:38;;;;;;;0.20;0.20;;;15.60;99.90;;;;;;5074462;28;20206;-78
2022/09/09 00:34:26;;;;;;;0.57;0.57;;;15.70;99.90;;;;;;5077764;28;20176;-79
2022/09/09 00:36:55;;;;;;;0.10;0.10;;;15.70;99.90;;;;;;5075677;28;20193;-79
2022/09/09 00:39:41;;;;;;;0.40;0.40;;;15.60;99.90;;;;;;5073729;28;20184;-79
2022/09/09 00:42:18;;;;;;;0.47;0.20;;;15.70;99.90;;;;;;5077679;28;20275;-79
2022/09/09 00:44:52;;;;;;;0.17;0.17;;;15.60;99.90;;;;;;5074087;28;20195;-79
2022/09/09 00:47:45;;;;;;;0.20;0.20;;;15.70;99.90;;;;;;5075384;28;20275;-79
2022/09/09 00:50:32;;;;;;;0.10;0.10;;;15.70;99.90;;;;;;5075284;28;20242;-81
2022/09/09 00:53:13;;;;;;;0.10;0.10;;;15.60;99.90;;;;;;5073299;28;20189;-80
2022/09/09 00:56:04;;;;;;;0.17;0.17;;;15.50;99.90;;;;;;5073592;28;20219;-79
2022/09/09 00:58:30;;;;;;;0.13;0.13;;;15.70;99.90;;;;;;5072189;28;20719;-79
2022/09/09 01:01:10;;;;;;;0.13;0.13;;;15.70;99.90;;;;;;5074982;28;20210;-81
2022/09/09 01:03:55;;;;;;;0.20;0.20;;;15.50;99.90;;;;;;5072081;28;20585;-79
2022/09/09 01:06:33;;;;;;;0.40;0.40;;;15.50;99.90;;;;;;5073497;28;20195;-79
2022/09/09 01:08:59;;;;;;;0.53;0.30;;;15.50;99.90;;;;;;5076178;28;20182;-79
2022/09/09 01:12:10;;;;;;;0.10;0.10;;;15.50;99.90;;;;;;5077748;28;20239;-79
2022/09/09 01:14:36;;;;;;;0.20;0.20;;;15.50;99.90;;;;;;4967551;28;20538;-79
2022/09/09 01:17:17;;;;;;;0.43;0.43;;;15.50;99.90;;;;;;4976556;28;20195;-79
2022/09/09 01:19:43;;;;;;;0.20;0.20;;;15.30;99.90;;;;;;5037030;28;20695;-81
2022/09/09 01:22:35;;;;;;;0.20;0.20;;;15.20;99.90;;;;;;5074812;28;20964;-81
2022/09/09 01:25:21;;;;;;;0.10;0.10;;;15.20;99.90;;;;;;5078568;28;20202;-79
2022/09/09 01:27:54;;;;;;;0.20;0.20;;;15.20;99.90;;;;;;5074391;28;20239;-79
2022/09/09 01:30:21;;;;;;;0.10;0.10;;;15.20;99.90;;;;;;5075782;28;20187;-79
2022/09/09 01:32:58;;;;;;;0.10;0.10;;;15.20;99.90;;;;;;5076468;28;20279;-79
2022/09/09 01:36:02;;;;;;;0.10;0.10;;;15.20;99.90;;;;;;5074544;28;20198;-79
2022/09/09 01:38:32;;;;;;;0.37;0.37;;;15.20;99.90;;;;;;5082788;28;20209;-79
2022/09/09 01:40:58;;;;;;;0.10;0.10;;;15.40;99.90;;;;;;5075491;28;21094;-79
2022/09/09 01:43:29;;;;;;;0.30;0.30;;;15.20;99.90;;;;;;5075711;28;20217;-79
2022/09/09 01:46:00;;;;;;;0.30;0.30;;;15.10;99.90;;;;;;5075189;28;20185;-80
2022/09/09 01:48:27;;;;;;;0.20;0.20;;;14.90;99.90;;;;;;5075032;28;20218;-79
2022/09/09 01:50:56;;;;;;;0.77;0.33;;;14.90;99.90;;;;;;5076281;28;20756;-79
2022/09/09 01:53:23;;;;;;;0.10;0.10;;;14.80;99.90;;;;;;5074442;28;20182;-79
2022/09/09 01:56:12;;;;;;;0.10;0.10;;;14.90;99.90;;;;;;5076228;28;20269;-80
2022/09/09 01:58:53;;;;;;;0.83;0.83;;;14.90;99.90;;;;;;5073117;28;21060;-79
2022/09/09 02:01:52;;;;;;;0.10;0.10;;;15.00;99.90;;;;;;5072455;28;20206;-79
2022/09/09 02:04:36;;;;;;;0.30;0.30;;;15.00;99.90;;;;;;5076065;28;20195;-79
2022/09/09 02:07:12;;;;;;;0.10;0.10;;;15.20;99.90;;;;;;5072495;28;20212;-79
2022/09/09 02:09:42;;;;;;;0.10;0.10;;;15.40;99.90;;;;;;5072716;28;20185;-79
2022/09/09 02:12:17;;;;;;;0.20;0.20;;;15.50;99.90;;;;;;5073330;28;20232;-79
2022/09/09 02:14:54;;;;;;;0.43;0.43;;;15.70;99.90;;;;;;5074334;28;20177;-79
2022/09/09 02:17:30;;;;;;;0.47;0.20;;;15.80;99.90;;;;;;5073235;28;20246;-79
2022/09/09 02:20:08;;;;;;;0.20;0.20;;;15.80;99.90;;;;;;5073705;28;20187;-79
2022/09/09 02:22:39;;;;;;;0.10;0.10;;;15.90;99.90;;;;;;5072554;28;20218;-79
2022/09/09 02:25:10;;;;;;;0.20;0.20;;;15.60;99.90;;;;;;5073590;28;20262;-79
2022/09/09 02:27:36;;;;;;;0.10;0.10;;;15.40;99.90;;;;;;5074984;28;20306;-79
2022/09/09 02:30:05;;;;;;;0.20;0.20;;;15.40;99.90;;;;;;5073634;28;20180;-79
2022/09/09 02:32:34;;;;;;;0.20;0.20;;;15.10;99.90;;;;;;5073872;28;20202;-79
2022/09/09 02:35:06;;;;;;;0.20;0.20;;;15.20;99.90;;;;;;5071437;28;20187;-79
2022/09/09 02:37:37;;;;;;;0.10;0.10;;;15.20;99.90;;;;;;5072686;28;20249;-79
2022/09/09 02:40:05;;;;;;;0.23;0.23;;;15.20;99.90;;;;;;5072753;28;20754;-79
2022/09/09 02:42:31;;;;;;;0.10;0.10;;;15.20;99.90;;;;;;5072177;28;20288;-79
2022/09/09 02:44:58;;;;;;;0.83;0.83;;;15.20;99.90;;;;;;5072517;28;20279;-79
2022/09/09 02:47:37;;;;;;;0.27;0.27;;;14.90;99.90;;;;;;5072214;28;20216;-79
2022/09/09 02:50:06;;;;;;;0.13;0.13;;;14.80;99.90;;;;;;5070686;28;20190;-80
2022/09/09 02:53:07;;;;;;;0.10;0.10;;;14.60;99.90;;;;;;5075352;28;20197;-80
2022/09/09 02:55:46;;;;;;;0.10;0.10;;;14.60;99.90;;;;;;5072039;28;20187;-79
2022/09/09 02:58:19;;;;;;;0.10;0.10;;;14.60;99.90;;;;;;5069462;28;20630;-79
2022/09/09 03:00:50;;;;;;;0.10;0.10;;;14.60;99.90;;;;;;5074838;28;20213;-79
2022/09/09 03:03:21;;;;;;;0.30;0.30;;;14.70;99.90;;;;;;5071267;28;20189;-79
2022/09/09 03:05:48;;;;;;;0.20;0.20;;;14.90;99.90;;;;;;5071893;28;20217;-79
2022/09/09 03:08:15;;;;;;;0.87;0.87;;;14.90;99.90;;;;;;5072631;28;21091;-79
2022/09/09 03:10:41;;;;;;;0.20;0.20;;;15.10;99.90;;;;;;5081293;28;20181;-79
2022/09/09 03:13:07;;;;;;;0.40;0.40;;;15.30;99.90;;;;;;5074000;28;20191;-79
2022/09/09 03:15:34;;;;;;;0.13;0.13;;;15.20;99.90;;;;;;5071940;28;20173;-79
2022/09/09 03:18:01;;;;;;;0.30;0.30;;;15.20;99.90;;;;;;5072356;28;20186;-79
2022/09/09 03:20:28;;;;;;;0.20;0.20;;;15.40;99.90;;;;;;5071806;28;20550;-79
2022/09/09 03:22:55;;;;;;;0.10;0.10;;;15.50;99.90;;;;;;5080771;28;20197;-80
2022/09/09 03:25:25;;;;;;;0.10;0.10;;;15.50;99.90;;;;;;5071268;28;20267;-80
2022/09/09 03:27:54;;;;;;;0.20;0.20;;;15.50;99.90;;;;;;5074299;28;20216;-80
2022/09/09 03:30:25;;;;;;;0.10;0.10;;;15.60;99.90;;;;;;5073872;28;20182;-79
2022/09/09 03:32:52;;;;;;;0.27;0.17;;;15.50;99.90;;;;;;5070826;28;20190;-79
2022/09/09 03:35:19;;;;;;;0.30;0.30;;;15.60;99.90;;;;;;5074844;28;20548;-80
2022/09/09 03:37:45;;;;;;;0.43;0.37;;;15.80;99.90;;;;;;5074680;28;20711;-80
2022/09/09 03:40:12;;;;;;;0.40;0.40;;;15.90;99.90;;;;;;5074700;28;20219;-79
2022/09/09 03:42:38;;;;;;;0.10;0.10;;;15.90;99.90;;;;;;5075018;28;20250;-79
2022/09/09 03:45:07;;;;;;;0.20;0.20;;;16.00;99.90;;;;;;5077439;28;20176;-80
2022/09/09 03:47:33;;;;;;;0.10;0.10;;;15.70;99.90;;;;;;5075401;28;20297;-80
2022/09/09 03:49:59;;;;;;;0.20;0.20;;;15.50;99.90;;;;;;5077471;28;20685;-79
2022/09/09 03:52:26;;;;;;;0.10;0.10;;;15.60;99.90;;;;;;5073708;28;20241;-80
2022/09/09 03:54:53;;;;;;;0.27;0.27;;;15.70;99.90;;;;;;5075137;28;20242;-79
2022/09/09 03:57:19;;;;;;;0.20;0.20;;;15.80;99.90;;;;;;5072283;28;20219;-79
2022/09/09 03:59:46;;;;;;;0.20;0.20;;;15.80;99.90;;;;;;5074000;28;20188;-79
2022/09/09 04:02:12;;;;;;;0.13;0.13;;;16.00;99.90;;;;;;5073184;28;20218;-79
2022/09/09 04:04:38;;;;;;;0.20;0.20;;;16.00;99.90;;;;;;5070768;28;20187;-79
2022/09/09 04:07:06;;;;;;;0.20;0.20;;;16.10;99.90;;;;;;5073566;28;20215;-80
2022/09/09 04:09:33;;;;;;;0.20;0.20;;;16.10;99.90;;;;;;5072647;28;20198;-80
2022/09/09 04:11:59;;;;;;;0.30;0.30;;;16.00;99.90;;;;;;5075338;28;20256;-79
2022/09/09 04:14:28;;;;;;;0.20;0.20;;;15.80;99.90;;;;;;5070056;28;20183;-80
2022/09/09 04:16:57;;;;;;;0.10;0.10;;;15.70;99.90;;;;;;5075845;28;20180;-80
2022/09/09 04:19:24;;;;;;;0.20;0.20;;;15.50;99.90;;;;;;5074789;28;20550;-80
2022/09/09 04:21:51;;;;;;;0.30;0.20;;;15.50;99.90;;;;;;5076305;28;20261;-79
2022/09/09 04:24:18;;;;;;;0.10;0.10;;;15.80;99.90;;;;;;5076055;28;20677;-80
2022/09/09 04:26:45;;;;;;;0.20;0.20;;;15.90;99.90;;;;;;5076013;28;20211;-79
2022/09/09 04:29:11;;;;;;;0.20;0.20;;;16.10;99.90;;;;;;5079326;28;20204;-79
2022/09/09 04:31:41;;;;;;;0.20;0.20;;;16.10;99.90;;;;;;5077141;28;20276;-79
2022/09/09 04:34:10;;;;;;;0.40;0.33;;;16.10;99.90;;;;;;5076425;28;20522;-79
2022/09/09 04:36:36;;;;;;;0.10;0.10;;;16.20;99.90;;;;;;5075957;28;20181;-80
2022/09/09 04:39:02;;;;;;;0.20;0.20;;;16.30;99.90;;;;;;5079124;28;20655;-80
2022/09/09 04:41:31;;;;;;;0.10;0.10;;;16.40;99.90;;;;;;5074665;28;20211;-79
2022/09/09 04:43:59;;;;;;;0.17;0.17;;;16.40;99.90;;;;;;5073515;28;20185;-80
2022/09/09 04:46:25;;;;;;;2.33;1.57;;;16.50;99.90;;;;;;5076157;28;21926;-79
2022/09/09 04:48:52;;;;;;;3.50;0.77;;;16.50;99.90;;;;;;5075705;28;20199;-79
2022/09/09 04:51:18;;;;;;;0.10;0.10;;;16.60;99.90;;;;;;5076759;28;20220;-80
2022/09/09 04:53:46;;;;;;;0.50;0.30;;;16.50;99.90;;;;;;5074700;28;20232;-79
2022/09/09 04:56:17;;;;;;;0.20;0.20;;;16.60;99.90;;;;;;5077704;28;20701;-79
2022/09/09 04:58:45;;;;;;;0.10;0.10;;;16.70;99.90;;;;;;5075064;28;20207;-80
2022/09/09 05:01:19;;;;;;;0.10;0.10;;;16.60;99.90;;;;;;5079033;28;20199;-80
2022/09/09 05:03:46;;;;;;;0.20;0.20;;;16.70;99.90;;;;;;5077719;28;20921;-80
2022/09/09 05:06:18;;;;;;;0.10;0.10;;;16.70;99.90;;;;;;5076143;28;20185;-80
2022/09/09 05:08:44;;;;;;;0.10;0.10;;;16.60;99.90;;;;;;5073760;28;20595;-79
2022/09/09 05:11:22;;;;;;;0.10;0.10;;;16.60;99.90;;;;;;5073068;28;20265;-79
2022/09/09 05:13:50;;;;;;;0.43;0.37;;;16.60;99.90;;;;;;5074011;28;20184;-80
2022/09/09 05:16:17;;;;;;;0.10;0.10;;;16.40;99.90;;;;;;5074695;28;21631;-80
2022/09/09 05:18:43;;;;;;;0.10;0.10;;;16.40;99.90;;;;;;5074208;28;20540;-79
2022/09/09 05:21:11;;;;;;;0.17;0.17;;;16.40;99.90;;;;;;5075473;28;20200;-80
2022/09/09 05:23:37;;;;;;;0.10;0.10;;;16.50;99.90;;;;;;5069055;28;20239;-80
2022/09/09 05:26:04;;;;;;;0.77;0.30;;;16.40;99.90;;;;;;5072104;28;20190;-79
2022/09/09 05:28:31;;;;;;;0.17;0.17;;;16.40;99.90;;;;;;5072089;28;20890;-79
2022/09/09 05:31:00;;;;;;;0.20;0.20;;;16.20;99.90;;;;;;5071679;28;20892;-80
2022/09/09 05:33:27;;;;;;;0.10;0.10;;;16.10;99.90;;;;;;5076165;28;20186;-82
2022/09/09 05:36:08;;;;;;;0.30;0.30;;;16.10;99.90;;;;;;5073650;28;20198;-80
2022/09/09 05:38:35;;;;;;;0.20;0.20;;;16.30;99.90;;;;;;5073033;28;20321;-80
2022/09/09 05:41:05;;;;;;;0.43;0.43;;;16.20;99.90;;;;;;5073648;28;20214;-79
2022/09/09 05:43:34;;;;;;;0.10;0.10;;;16.00;99.90;;;;;;5072297;28;20191;-80
2022/09/09 05:46:09;;;;;;;0.23;0.23;;;16.00;99.90;;;;;;5074348;28;20558;-79
2022/09/09 05:48:40;;;;;;;0.20;0.20;;;16.00;99.90;;;;;;5075652;28;20223;-79
2022/09/09 05:51:12;;;;;;;0.10;0.10;;;16.00;99.90;;;;;;5076469;28;20294;-79
2022/09/09 05:53:38;;;;;;;0.10;0.10;;;16.20;99.90;;;;;;5073163;28;20559;-79
2022/09/09 05:56:10;;;;;;;0.20;0.20;;;16.30;99.90;;;;;;5074948;28;20239;-80
2022/09/09 05:58:38;;;;;;;0.23;0.23;;;16.70;99.90;;;;;;5072516;28;20657;-79
2022/09/09 06:01:10;;;;;;;0.20;0.20;;;16.70;99.90;;;;;;5074348;28;20212;-80
2022/09/09 06:03:38;;;;;;;0.20;0.20;;;16.50;99.90;;;;;;5070690;28;20240;-79
2022/09/09 06:06:09;;;;;;;1.10;0.53;;;16.60;99.90;;;;;;5073998;28;20587;-79
2022/09/09 06:08:44;;;;;;;0.13;0.13;;;16.50;99.90;;;;;;5073863;28;20715;-80
2022/09/09 06:11:13;;;;;;;0.20;0.20;;;16.30;99.90;;;;;;5073986;28;20216;-80
2022/09/09 06:13:40;;;;;;;0.10;0.10;;;16.30;99.90;;;;;;5074038;28;20223;-79
2022/09/09 06:16:11;;;;;;;0.67;0.67;;;16.50;99.90;;;;;;5070796;28;20192;-80
2022/09/09 06:18:38;;;;;;;0.10;0.10;;;16.80;99.90;;;;;;5072211;28;20181;-81
2022/09/09 06:21:13;;;;;;;0.10;0.10;;;17.10;99.90;;;;;;5075361;28;20628;-81
2022/09/09 06:23:44;;;;;;;0.30;0.30;;;17.10;99.90;;;;;;5070174;28;20209;-79
2022/09/09 06:26:17;;;;;;;0.10;0.10;;;17.00;99.90;;;;;;5068341;28;20262;-79
2022/09/09 06:28:45;;;;;;;0.20;0.20;;;17.30;99.90;;;;;;5069534;28;20224;-79
2022/09/09 06:31:14;;;;;;;0.50;0.50;;;17.50;99.90;;;;;;5072772;28;20574;-80
2022/09/09 06:33:42;;;;;;;0.10;0.10;;;17.40;99.90;;;;;;5079881;28;20185;-79
2022/09/09 06:36:12;;;;;;;0.10;0.10;;;17.10;99.90;;;;;;5072316;28;20180;-79
2022/09/09 06:38:40;;;;;;;0.27;0.27;;;17.30;99.90;;;;;;5073301;28;20187;-79
2022/09/09 06:41:07;;;;;;;0.30;0.30;;;17.50;99.90;;;;;;5074799;28;20816;-79
2022/09/09 06:43:34;;;;;;;0.27;0.20;;;17.60;99.90;;;;;;5072937;28;20192;-80
2022/09/09 06:46:13;;;;;;;0.33;0.30;;;17.70;99.90;;;;;;5073564;28;20262;-79
2022/09/09 06:48:44;;;;;;;0.10;0.10;;;17.80;99.90;;;;;;5072377;28;20670;-79
2022/09/09 06:51:18;;;;;;;0.10;0.10;;;17.80;99.90;;;;;;5074716;28;20918;-79
2022/09/09 06:53:46;;;;;;;0.17;0.17;;;17.90;99.90;;;;;;5071045;28;21870;-81
2022/09/09 06:56:23;;;;;;;0.13;0.13;;;18.00;99.90;;;;;;5070125;28;20185;-79
2022/09/09 06:58:51;;;;;;;0.10;0.10;;;17.70;99.90;;;;;;5073211;28;20219;-79
2022/09/09 07:01:20;;;;;;;0.20;0.20;;;17.60;99.90;;;;;;5068064;28;20257;-80
2022/09/09 07:03:50;;;;;;;0.30;0.30;;;17.60;99.90;;;;;;5074881;28;20204;-79
2022/09/09 07:06:23;;;;;;;1.07;0.23;;;17.70;99.90;;;;;;5071632;28;20192;-80
2022/09/09 07:08:54;;;;;;;0.73;0.73;;;17.80;99.90;;;;;;5068615;28;20585;-80
2022/09/09 07:11:22;;;;;;;0.20;0.20;;;17.70;99.90;;;;;;5071910;28;20233;-79
2022/09/09 07:13:49;;;;;;;0.20;0.20;;;17.80;99.90;;;;;;5072615;28;20176;-80
2022/09/09 07:16:20;;;;;;;0.30;0.30;;;17.60;99.90;;;;;;5074062;28;20177;-80
2022/09/09 07:18:46;;;;;;;0.30;0.17;;;17.60;99.90;;;;;;5072537;28;20246;-80
2022/09/09 07:21:14;;;;;;;0.13;0.13;;;18.00;99.90;;;;;;5075059;28;20625;-79
2022/09/09 07:23:41;;;;;;;0.33;0.20;;;18.00;99.90;;;;;;5072224;28;20264;-80
2022/09/09 07:26:17;;;;;;;0.20;0.20;;;18.00;99.90;;;;;;5073787;28;20613;-79
2022/09/09 07:28:47;;;;;;;0.30;0.30;;;18.10;99.90;;;;;;5074237;28;20200;-79
2022/09/09 07:31:21;;;;;;;0.20;0.20;;;18.20;99.90;;;;;;5070974;28;20201;-79
2022/09/09 07:33:48;;;;;;;0.27;0.27;;;18.30;99.90;;;;;;5072243;28;20605;-80
2022/09/09 07:36:28;;;;;;;0.30;0.30;;;18.80;99.90;;;;;;5074403;28;20230;-80
2022/09/09 07:39:03;;;;;;;0.30;0.30;;;18.90;99.90;;;;;;5073396;28;21066;-80
2022/09/09 07:41:40;;;;;;;0.40;0.40;;;19.00;99.90;;;;;;5072156;28;20286;-79
2022/09/09 07:44:10;;;;;;;0.10;0.10;;;19.40;99.90;;;;;;5072589;28;20268;-79
2022/09/09 07:46:39;;;;;;;0.10;0.10;;;19.50;99.90;;;;;;5072231;28;20181;-79
2022/09/09 07:49:09;;;;;;;0.10;0.10;;;19.40;99.90;;;;;;5074985;28;20199;-80
2022/09/09 07:51:38;;;;;;;0.30;0.30;;;19.40;99.90;;;;;;5076303;28;20633;-79
2022/09/09 07:54:10;;;;;;;0.20;0.20;;;19.30;99.90;;;;;;5070750;28;20187;-79
2022/09/09 07:56:40;;;;;;;0.20;0.20;;;19.30;99.90;;;;;;5076383;28;20180;-79
2022/09/09 07:59:07;;;;;;;0.47;0.40;;;19.30;99.90;;;;;;5076422;28;20187;-80
2022/09/09 08:01:45;;;;;;;0.40;0.40;;;19.30;99.90;;;;;;5079039;28;20204;-80
2022/09/09 08:04:17;;;;;;;0.50;0.27;;;19.40;99.90;;;;;;5075421;28;20166;-79
2022/09/09 08:06:47;;;;;;;0.10;0.10;;;19.50;99.90;;;;;;5075638;28;20540;-80
2022/09/09 08:09:17;;;;;;;1.20;0.50;;;19.60;99.90;;;;;;5074964;28;20183;-79
2022/09/09 08:11:44;;;;;;;0.97;0.90;;;19.60;99.90;;;;;;5076180;28;20753;-79
2022/09/09 08:14:11;;;;;;;0.50;0.50;;;19.50;99.90;;;;;;5075420;28;20208;-80
2022/09/09 08:16:45;;;;;;;0.80;0.67;;;19.60;99.90;;;;;;5077456;28;20186;-80
2022/09/09 08:19:12;;;;;;;0.43;0.40;;;19.70;99.90;;;;;;5076300;28;20776;-80
2022/09/09 08:21:42;;;;;;;0.30;0.30;;;19.80;99.90;;;;;;5073284;28;20680;-80
2022/09/09 08:24:10;;;;;;;0.63;0.57;;;19.70;99.90;;;;;;5074069;28;20182;-80
2022/09/09 08:26:39;;;;;;;0.20;0.20;;;19.70;99.90;;;;;;5077634;28;20611;-80
2022/09/09 08:29:07;;;;;;;0.97;0.97;;;19.60;99.90;;;;;;5074694;28;20174;-79
2022/09/09 08:31:39;;;;;;;0.30;0.30;;;19.50;99.90;;;;;;5073087;28;20196;-79
2022/09/09 08:34:07;;;;;;;0.37;0.37;;;19.30;99.90;;;;;;5076500;28;20616;-79
2022/09/09 08:36:42;;;;;;;0.40;0.30;;;19.20;99.90;;;;;;5074215;28;20185;-79
2022/09/09 08:39:09;;;;;;;0.30;0.30;;;19.30;99.90;;;;;;5076656;28;20172;-79
2022/09/09 08:41:54;;;;;;;0.30;0.30;;;19.40;99.90;;;;;;5075244;28;20201;-79
2022/09/09 08:44:46;;;;;;;0.57;0.47;;;19.40;99.90;;;;;;5076557;28;20197;-79
2022/09/09 08:47:39;;;;;;;0.33;0.33;;;19.50;99.90;;;;;;5076176;28;20615;-79
2022/09/09 08:50:24;;;;;;;1.13;0.40;;;19.70;99.90;;;;;;5074231;28;20220;-79
2022/09/09 08:53:01;;;;;;;0.37;0.37;;;19.60;99.90;;;;;;5077064;28;20196;-79
2022/09/09 08:55:30;;;;;;;0.20;0.20;;;19.70;99.90;;;;;;5076004;28;20636;-80
2022/09/09 08:58:00;;;;;;;0.30;0.30;;;19.80;99.90;;;;;;5073860;28;20530;-79
2022/09/09 09:00:59;;;;;;;0.20;0.20;;;19.90;99.90;;;;;;5074485;28;20264;-79
2022/09/09 09:03:41;;;;;;;0.20;0.20;;;20.00;99.90;;;;;;5037868;28;20674;-80
2022/09/09 09:06:37;;;;;;;0.73;0.73;;;20.20;99.90;;;;;;5075893;28;20188;-79
2022/09/09 09:09:11;;;;;;;0.90;0.73;;;20.30;99.90;;;;;;5078900;28;20187;-79
2022/09/09 09:11:47;;;;;;;0.97;0.50;;;20.50;99.90;;;;;;5074478;28;20197;-79
2022/09/09 09:14:25;;;;;;;0.23;0.23;;;20.60;99.90;;;;;;5073548;28;20581;-79
2022/09/09 09:17:03;;;;;;;0.23;0.23;;;20.60;99.90;;;;;;5078345;28;20179;-79
2022/09/09 09:19:30;;;;;;;0.27;0.27;;;20.60;99.90;;;;;;5083727;28;20193;-80
2022/09/09 09:22:17;;;;;;;0.97;0.70;;;20.70;99.90;;;;;;5075196;28;20790;-80
2022/09/09 09:24:52;;;;;;;0.43;0.43;;;20.80;99.90;;;;;;5076314;28;20188;-80
2022/09/09 09:27:43;;;;;;;2.20;0.50;;;20.80;99.90;;;;;;5079190;28;20196;-79
2022/09/09 09:30:23;;;;;;;0.40;0.40;;;20.70;99.90;;;;;;5091963;28;20181;-80
2022/09/09 09:33:13;;;;;;;0.30;0.30;;;20.60;99.90;;;;;;5071807;28;21214;-79
2022/09/09 09:35:41;;;;;;;0.30;0.30;;;20.30;99.90;;;;;;5076946;28;20618;-85
2022/09/09 09:38:18;;;;;;;0.17;0.17;;;20.30;99.90;;;;;;5076657;28;20196;-80
2022/09/09 09:41:10;;;;;;;0.20;0.20;;;20.30;99.90;;;;;;5074133;28;20635;-81
2022/09/09 09:43:40;;;;;;;0.30;0.30;;;20.40;99.90;;;;;;5072687;28;20241;-81
2022/09/09 09:46:23;;;;;;;4.63;0.53;;;20.40;99.90;;;;;;5073192;28;20185;-82
2022/09/09 09:49:05;;;;;;;0.43;0.37;;;20.30;99.90;;;;;;5072493;28;20282;-80
2022/09/09 09:51:33;;;;;;;0.33;0.33;;;20.10;99.90;;;;;;5074502;28;20342;-80
2022/09/09 09:54:37;;;;;;;0.33;0.33;;;19.90;99.90;;;;;;5077729;28;20862;-80
2022/09/09 09:57:17;;;;;;;0.27;0.27;;;20.00;99.90;;;;;;5066650;28;20605;-79
2022/09/09 09:59:46;;;;;;;0.63;0.63;;;20.30;99.90;;;;;;5074717;28;20180;-80
2022/09/09 10:02:26;;;;;;;3.70;3.00;;;20.60;99.90;;;;;;5075969;28;20928;-80
2022/09/09 10:05:05;;;;;;;0.30;0.30;;;20.90;99.90;;;;;;5077736;28;20169;-80
2022/09/09 10:07:37;;;;;;;0.30;0.30;;;20.90;99.90;;;;;;5072514;28;20208;-80
2022/09/09 10:10:11;;;;;;;0.40;0.40;;;21.10;99.90;;;;;;5076258;28;20602;-80
2022/09/09 10:12:58;;;;;;;1.03;1.03;;;21.30;99.90;;;;;;5076307;28;20256;-80
2022/09/09 10:15:31;;;;;;;1.37;1.13;;;21.30;99.90;;;;;;5072205;28;20242;-80
2022/09/09 10:18:09;;;;;;;0.90;0.47;;;21.40;99.90;;;;;;5092564;27;20176;-80
2022/09/09 10:20:51;;;;;;;0.30;0.30;;;21.40;99.90;;;;;;5077592;28;20671;-80
2022/09/09 10:23:30;;;;;;;0.40;0.40;;;21.50;99.90;;;;;;5078473;28;20280;-79
2022/09/09 10:26:16;;;;;;;0.43;0.43;;;21.40;99.90;;;;;;5077114;28;20161;-79
2022/09/09 10:29:26;;;;;;;5.43;0.30;;;21.50;99.90;;;;;;5072629;28;20212;-80
2022/09/09 10:32:34;;;;;;;0.33;0.33;;;21.80;99.90;;;;;;5076426;28;20193;-79
2022/09/09 10:35:22;;;;;;;0.20;0.20;;;22.10;99.90;;;;;;5045815;28;20204;-80
2022/09/09 10:38:14;;;;;;;1.07;0.30;;;22.50;99.90;;;;;;5074214;28;20181;-80
2022/09/09 10:41:04;;;;;;;1.27;0.87;;;22.70;99.90;;;;;;5074414;28;20180;-80
2022/09/09 10:43:52;;;;;;;0.40;0.40;;;22.90;99.90;;;;;;5075916;28;20191;-80
2022/09/09 10:46:35;;;;;;;0.20;0.20;;;23.30;99.90;;;;;;5075198;28;20181;-80
2022/09/09 10:49:41;;;;;;;0.57;0.57;;;23.20;99.90;;;;;;5087488;28;20662;-80
2022/09/09 10:52:31;;;;;;;0.67;0.43;;;23.10;99.90;;;;;;5077246;28;20192;-80
2022/09/09 10:55:13;;;;;;;0.20;0.20;;;23.10;99.90;;;;;;5080079;28;20530;-80
2022/09/09 10:57:47;;;;;;;0.30;0.30;;;23.20;99.90;;;;;;5073620;28;20196;-80
2022/09/09 11:00:20;;;;;;;0.20;0.20;;;23.50;99.90;;;;;;5077283;28;20274;-80
2022/09/09 11:02:55;;;;;;;0.27;0.27;;;23.80;99.90;;;;;;5074051;28;20314;-80
2022/09/09 11:05:47;;;;;;;0.20;0.20;;;24.00;99.90;;;;;;5073861;28;20357;-80
2022/09/09 11:08:31;;;;;;;3.37;0.40;;;24.10;99.90;;;;;;5073497;28;20229;-80
2022/09/09 11:11:04;;;;;;;0.20;0.20;;;24.20;99.90;;;;;;5073756;28;20224;-80
2022/09/09 11:13:44;;;;;;;0.67;0.27;;;24.00;99.90;;;;;;5072227;28;20241;-80
2022/09/09 11:16:28;;;;;;;0.60;0.27;;;24.10;99.90;;;;;;5076278;28;20202;-80
2022/09/09 11:19:11;;;;;;;0.40;0.40;;;24.00;99.90;;;;;;5076182;28;20216;-81
2022/09/09 11:21:49;;;;;;;0.40;0.33;;;24.00;99.90;;;;;;5074631;28;20225;-80
2022/09/09 11:25:00;;;;;;;2.03;0.83;;;23.70;99.90;;;;;;5076723;28;20184;-80
2022/09/09 11:27:29;;;;;;;0.10;0.10;;;23.30;99.90;;;;;;5005373;28;20249;-80
2022/09/09 11:30:06;;;;;;;0.67;0.33;;;23.30;99.90;;;;;;5065069;28;20193;-80
2022/09/09 11:32:54;;;;;;;0.13;0.13;;;23.30;99.90;;;;;;5080311;28;20251;-81
2022/09/09 11:35:34;;;;;;;0.20;0.20;;;23.10;99.90;;;;;;5079964;28;20180;-80
2022/09/09 11:38:13;;;;;;;0.23;0.23;;;23.10;99.90;;;;;;5081705;28;20189;-80
2022/09/09 11:40:40;;;;;;;0.20;0.20;;;23.30;99.90;;;;;;5078669;28;20188;-80
2022/09/09 11:43:14;;;;;;;0.43;0.43;;;23.10;99.90;;;;;;5080201;28;20237;-80
2022/09/09 11:45:42;;;;;;;0.20;0.20;;;23.10;99.90;;;;;;5077131;28;20290;-80
2022/09/09 11:48:30;;;;;;;0.30;0.30;;;22.90;99.90;;;;;;5081298;28;20200;-80
2022/09/09 11:51:09;;;;;;;0.20;0.20;;;22.80;99.90;;;;;;5078524;28;20216;-80
2022/09/09 11:53:48;;;;;;;0.20;0.20;;;22.70;99.90;;;;;;5077869;28;20180;-80
2022/09/09 11:56:28;;;;;;;0.10;0.10;;;22.70;99.90;;;;;;5076307;28;20246;-80
2022/09/09 11:59:05;;;;;;;0.20;0.20;;;22.60;99.90;;;;;;5083375;28;20271;-80
2022/09/09 12:01:42;;;;;;;0.20;0.20;;;22.40;99.90;;;;;;5077786;28;20203;-81
2022/09/09 12:04:44;;;;;;;0.20;0.20;;;22.20;99.90;;;;;;5075241;28;20271;-80
2022/09/09 12:07:11;;;;;;;0.20;0.20;;;22.10;99.90;;;;;;5054496;28;20266;-81
2022/09/09 12:10:04;;;;;;;0.20;0.20;;;21.90;99.90;;;;;;5078248;28;20533;-80
2022/09/09 12:12:39;;;;;;;0.37;0.30;;;21.80;99.90;;;;;;5077460;28;20200;-80
2022/09/09 12:15:11;;;;;;;0.20;0.20;;;21.60;99.90;;;;;;5076180;28;20225;-81
2022/09/09 12:17:46;;;;;;;0.20;0.20;;;21.50;99.90;;;;;;5079219;28;20183;-80
2022/09/09 12:20:33;;;;;;;0.20;0.20;;;21.40;99.90;;;;;;5078335;28;20555;-80
2022/09/09 12:23:44;;;;;;;0.20;0.20;;;21.30;99.90;;;;;;5078381;28;20650;-85
2022/09/09 12:26:28;;;;;;;0.30;0.30;;;21.30;99.90;;;;;;5032869;28;20205;-81
2022/09/09 12:29:21;;;;;;;0.73;0.50;;;21.30;99.90;;;;;;5072494;28;20204;-79
2022/09/09 12:32:00;;;;;;;0.43;0.43;;;21.40;99.90;;;;;;5073516;28;20679;-80
2022/09/09 12:34:33;;;;;;;0.27;0.27;;;21.40;99.90;;;;;;5073921;28;20185;-79
2022/09/09 12:37:25;;;;;;;1.17;0.27;;;21.40;99.90;;;;;;5076607;28;20173;-80
2022/09/09 12:39:59;;;;;;;0.20;0.20;;;21.70;99.90;;;;;;5077324;28;20200;-80
2022/09/09 12:42:26;;;;;;;0.10;0.10;;;21.80;99.90;;;;;;5074279;28;20268;-80
2022/09/09 12:44:53;;;;;;;0.37;0.37;;;22.20;99.90;;;;;;5077012;28;20195;-80
2022/09/09 12:47:37;;;;;;;0.23;0.23;;;22.50;99.90;;;;;;5076979;28;20257;-80
2022/09/09 12:50:14;;;;;;;0.20;0.20;;;22.70;99.90;;;;;;5076986;28;20192;-81
2022/09/09 12:52:40;;;;;;;0.10;0.10;;;22.70;99.90;;;;;;5077380;28;20200;-80
2022/09/09 12:55:18;;;;;;;0.20;0.20;;;22.60;99.90;;;;;;5077127;28;20669;-80
2022/09/09 12:57:45;;;;;;;0.20;0.20;;;22.70;99.90;;;;;;5080043;28;20208;-80
2022/09/09 13:00:23;;;;;;;0.10;0.10;;;22.60;99.90;;;;;;5078629;28;20263;-80
2022/09/09 13:03:01;;;;;;;0.20;0.20;;;22.60;99.90;;;;;;5079344;28;20254;-80
2022/09/09 13:05:38;;;;;;;0.10;0.10;;;22.70;99.90;;;;;;5077708;28;20561;-80
2022/09/09 13:08:10;;;;;;;0.50;0.47;;;22.70;99.90;;;;;;5077177;28;20207;-80
2022/09/09 13:10:59;;;;;;;0.20;0.20;;;23.00;99.90;;;;;;5075358;28;21026;-80
2022/09/09 13:13:34;;;;;;;1.60;0.77;;;23.20;99.90;;;;;;5077074;28;20600;-80
2022/09/09 13:16:04;;;;;;;0.17;0.17;;;23.30;99.90;;;;;;5078258;28;20267;-80
2022/09/09 13:18:35;;;;;;;0.17;0.17;;;23.30;99.90;;;;;;5077756;28;20182;-80
2022/09/09 13:21:02;;;;;;;0.20;0.20;;;23.30;99.90;;;;;;5073346;28;20670;-81
2022/09/09 13:23:34;;;;;;;0.30;0.30;;;23.50;99.90;;;;;;5073118;28;20202;-79
2022/09/09 13:26:04;;;;;;;0.27;0.27;;;23.50;99.90;;;;;;5075615;28;20185;-80
2022/09/09 13:28:34;;;;;;;0.10;0.10;;;23.50;99.90;;;;;;5074031;28;20196;-79